Aérodrome :
LOGIN :

S'inscrire | Disclaimer

   EN    FR    IT 

 










Légende :    VFR   VFR Marginal   IFR   IFR Intensif   IFR Très Intensif
Visi : 
Plafond : 
>= 8 km
>= 3000ft
5 à 8 km
1000 à 3000 ft
1500m à 5 km
500 à 1000 ft
800 à 1500m
200 à 500 ft
< 800m
< 200 ft
Symboles :   Orages  Brouillard  Fortes neiges  Fortes précipitations  Vent > 20 kt
SIGMETs :   Divers  Orages  Givrage  Turbulence  Onde Orograph.  Cendres Volcan.







- Altitude de l'aérodrome : 233 ft
- Code IATA : REU


LERS - Reus Tarragona

DERNIER METAR :
  • 211700Z 12003KT 070V160 CAVOK 14/03 Q1027

METARs EXPIRÉS :
  • 211630Z 13006KT 080V180 CAVOK 15/04 Q1027
  • 211600Z 12007KT 040V170 CAVOK 15/03 Q1027
  • 211530Z 11008KT 070V170 CAVOK 15/04 Q1027
  • 211500Z 10009KT 060V160 9999 FEW050 15/01 Q1027
  • 211430Z 12009KT 060V160 9999 FEW050 16/02 Q1027

TAF TAF LERS
Valide du 21 à 15h jusqu'au 22 à 15h UTC


211400Z 2115/2215 12011KT 9999 FEW030 TX21/2212Z TN07/2206Z
TEMPO 2118/2122 34004KT
BECMG 2122/2124 01006KT
BECMG 2212/2214 12010KT
Pas de NOTAMs connus pour ce terrain.



MET'MAP, la Météo Aéronautique d'un coup d'oeil ! - Copyright ORBIFLY Décembre 2007 - Disclaimer

ORBIFLY MET'MAP TEAM :

Programmation & Développement : Alexandra Zaïnal
Conception & Développement : Baudouin d'Aumeries
Co-Programmation & Développement : Marc-Olivier Méhu
Soutien technique & logistique : Manuel Goepfert

Contact : metmap@orbifly.com




SOURCES & CREDITS :

   NOAA